Summit Station, Ohio
Current Conditions -  °F | °C
As of 4:51 AM on Thursday 23 Oct 2014 (Local Time) from KCMH Reporting Station
Clear Clear  
Wind Chill: 41°   Ceiling: Unl
Heat Index: 41°   Visibility: 9mi
Dew Point: 38°   Wind: 3mph
Humidity: 89%   Direction: 330°NNW
Pressure: 30.23"   Gusts: NA
Location:  40°N, 82.75°W
Report Text: KCMH 230851Z 33003KT 9SM CLR 05/03 A3023 RMK AO2 SLP238 T00500033 55000
Loading
Personal Weather Stations






























Interactive Weather Map
Tropical Storm Tracking
New forecast layout! Learn more

10-Day Weather Forecast

Advertisements
Track Severe Weather on mobile